sensor_id;sensor_type;location;lat;lon;timestamp;P1;durP1;ratioP1;P2;durP2;ratioP2
22967;SDS011;11650;48.106;-1.696;2022-09-29T00:01:07;7.13;;;1.50;;
22967;SDS011;11650;48.106;-1.696;2022-09-29T00:03:33;7.63;;;1.20;;
22967;SDS011;11650;48.106;-1.696;2022-09-29T00:05:59;6.43;;;1.50;;
22967;SDS011;11650;48.106;-1.696;2022-09-29T00:08:26;6.67;;;1.53;;
22967;SDS011;11650;48.106;-1.696;2022-09-29T00:10:53;7.67;;;1.90;;
22967;SDS011;11650;48.106;-1.696;2022-09-29T00:13:19;8.67;;;1.40;;
22967;SDS011;11650;48.106;-1.696;2022-09-29T00:15:53;10.33;;;1.97;;
22967;SDS011;11650;48.106;-1.696;2022-09-29T00:18:21;8.53;;;1.70;;
22967;SDS011;11650;48.106;-1.696;2022-09-29T00:20:54;10.53;;;1.60;;
22967;SDS011;11650;48.106;-1.696;2022-09-29T00:23:24;8.27;;;1.63;;
22967;SDS011;11650;48.106;-1.696;2022-09-29T00:26:06;8.17;;;1.50;;
22967;SDS011;11650;48.106;-1.696;2022-09-29T00:28:34;6.27;;;1.40;;
22967;SDS011;11650;48.106;-1.696;2022-09-29T00:31:02;10.10;;;1.73;;
22967;SDS011;11650;48.106;-1.696;2022-09-29T00:33:29;7.93;;;1.80;;
22967;SDS011;11650;48.106;-1.696;2022-09-29T00:35:59;9.20;;;2.40;;
22967;SDS011;11650;48.106;-1.696;2022-09-29T00:38:27;8.30;;;1.90;;
22967;SDS011;11650;48.106;-1.696;2022-09-29T00:40:54;9.73;;;1.50;;
22967;SDS011;11650;48.106;-1.696;2022-09-29T00:43:21;6.37;;;1.37;;
22967;SDS011;11650;48.106;-1.696;2022-09-29T00:45:49;5.83;;;1.50;;
22967;SDS011;11650;48.106;-1.696;2022-09-29T00:48:17;10.20;;;1.80;;
22967;SDS011;11650;48.106;-1.696;2022-09-29T00:50:51;8.57;;;1.30;;
22967;SDS011;11650;48.106;-1.696;2022-09-29T00:53:18;7.90;;;1.73;;
22967;SDS011;11650;48.106;-1.696;2022-09-29T00:55:50;9.17;;;1.57;;
22967;SDS011;11650;48.106;-1.696;2022-09-29T00:58:32;7.33;;;2.00;;
22967;SDS011;11650;48.106;-1.696;2022-09-29T01:01:02;9.50;;;1.73;;
22967;SDS011;11650;48.106;-1.696;2022-09-29T01:03:30;5.40;;;1.30;;
22967;SDS011;11650;48.106;-1.696;2022-09-29T01:06:07;8.30;;;1.70;;
22967;SDS011;11650;48.106;-1.696;2022-09-29T01:11:07;5.33;;;1.80;;
22967;SDS011;11650;48.106;-1.696;2022-09-29T01:13:35;9.37;;;1.60;;
22967;SDS011;11650;48.106;-1.696;2022-09-29T01:16:02;6.23;;;1.57;;
22967;SDS011;11650;48.106;-1.696;2022-09-29T01:18:27;10.43;;;2.13;;
22967;SDS011;11650;48.106;-1.696;2022-09-29T01:24:04;12.20;;;1.87;;
22967;SDS011;11650;48.106;-1.696;2022-09-29T01:27:11;8.43;;;2.00;;
22967;SDS011;11650;48.106;-1.696;2022-09-29T01:43:38;8.47;;;1.90;;
22967;SDS011;11650;48.106;-1.696;2022-09-29T01:46:26;10.50;;;2.27;;
22967;SDS011;11650;48.106;-1.696;2022-09-29T01:48:58;7.83;;;2.00;;
22967;SDS011;11650;48.106;-1.696;2022-09-29T01:51:28;9.07;;;1.63;;
22967;SDS011;11650;48.106;-1.696;2022-09-29T01:57:33;8.63;;;2.13;;
22967;SDS011;11650;48.106;-1.696;2022-09-29T02:00:19;13.03;;;2.23;;
22967;SDS011;11650;48.106;-1.696;2022-09-29T02:02:52;10.80;;;1.90;;
22967;SDS011;11650;48.106;-1.696;2022-09-29T02:05:33;6.43;;;2.10;;
22967;SDS011;11650;48.106;-1.696;2022-09-29T02:11:04;10.63;;;1.90;;
22967;SDS011;11650;48.106;-1.696;2022-09-29T02:13:33;11.07;;;2.07;;
22967;SDS011;11650;48.106;-1.696;2022-09-29T02:16:03;10.00;;;2.37;;
22967;SDS011;11650;48.106;-1.696;2022-09-29T02:18:40;11.03;;;2.00;;
22967;SDS011;11650;48.106;-1.696;2022-09-29T02:21:10;5.67;;;2.00;;
22967;SDS011;11650;48.106;-1.696;2022-09-29T02:23:35;10.03;;;2.30;;
22967;SDS011;11650;48.106;-1.696;2022-09-29T02:26:01;9.93;;;2.23;;
22967;SDS011;11650;48.106;-1.696;2022-09-29T02:28:28;6.27;;;1.80;;
22967;SDS011;11650;48.106;-1.696;2022-09-29T02:30:53;7.87;;;1.90;;
22967;SDS011;11650;48.106;-1.696;2022-09-29T02:33:19;8.30;;;1.80;;
22967;SDS011;11650;48.106;-1.696;2022-09-29T02:38:27;11.67;;;2.00;;
22967;SDS011;11650;48.106;-1.696;2022-09-29T02:44:00;13.23;;;2.30;;
22967;SDS011;11650;48.106;-1.696;2022-09-29T02:51:47;6.57;;;2.30;;
22967;SDS011;11650;48.106;-1.696;2022-09-29T03:02:31;10.97;;;2.37;;
22967;SDS011;11650;48.106;-1.696;2022-09-29T03:04:57;8.73;;;2.50;;
22967;SDS011;11650;48.106;-1.696;2022-09-29T03:07:22;5.00;;;1.90;;
22967;SDS011;11650;48.106;-1.696;2022-09-29T03:09:48;6.33;;;2.03;;
22967;SDS011;11650;48.106;-1.696;2022-09-29T03:12:14;6.83;;;2.17;;
22967;SDS011;11650;48.106;-1.696;2022-09-29T03:14:41;9.20;;;2.07;;
22967;SDS011;11650;48.106;-1.696;2022-09-29T03:17:07;10.80;;;2.30;;
22967;SDS011;11650;48.106;-1.696;2022-09-29T03:19:32;7.97;;;2.00;;
22967;SDS011;11650;48.106;-1.696;2022-09-29T03:21:58;10.90;;;2.30;;
22967;SDS011;11650;48.106;-1.696;2022-09-29T03:24:23;6.97;;;1.90;;
22967;SDS011;11650;48.106;-1.696;2022-09-29T03:26:51;7.10;;;2.33;;
22967;SDS011;11650;48.106;-1.696;2022-09-29T03:29:16;9.27;;;2.33;;
22967;SDS011;11650;48.106;-1.696;2022-09-29T03:31:42;8.30;;;2.43;;
22967;SDS011;11650;48.106;-1.696;2022-09-29T03:34:07;11.47;;;2.50;;
22967;SDS011;11650;48.106;-1.696;2022-09-29T03:36:33;10.83;;;2.70;;
22967;SDS011;11650;48.106;-1.696;2022-09-29T03:38:59;10.00;;;2.30;;
22967;SDS011;11650;48.106;-1.696;2022-09-29T03:41:24;11.83;;;2.60;;
22967;SDS011;11650;48.106;-1.696;2022-09-29T03:43:50;11.40;;;2.80;;
22967;SDS011;11650;48.106;-1.696;2022-09-29T03:46:15;9.53;;;2.10;;
22967;SDS011;11650;48.106;-1.696;2022-09-29T03:48:41;12.53;;;2.67;;
22967;SDS011;11650;48.106;-1.696;2022-09-29T03:51:07;8.37;;;2.17;;
22967;SDS011;11650;48.106;-1.696;2022-09-29T03:53:33;14.90;;;2.20;;
22967;SDS011;11650;48.106;-1.696;2022-09-29T03:55:59;10.10;;;2.33;;
22967;SDS011;11650;48.106;-1.696;2022-09-29T03:58:26;12.93;;;2.43;;
22967;SDS011;11650;48.106;-1.696;2022-09-29T04:00:52;7.37;;;2.27;;
22967;SDS011;11650;48.106;-1.696;2022-09-29T04:03:18;9.90;;;2.23;;
22967;SDS011;11650;48.106;-1.696;2022-09-29T04:05:45;9.57;;;2.17;;
22967;SDS011;11650;48.106;-1.696;2022-09-29T04:08:14;10.80;;;2.40;;
22967;SDS011;11650;48.106;-1.696;2022-09-29T04:10:40;11.53;;;2.10;;
22967;SDS011;11650;48.106;-1.696;2022-09-29T04:13:06;9.20;;;2.13;;
22967;SDS011;11650;48.106;-1.696;2022-09-29T04:15:33;5.90;;;2.20;;
22967;SDS011;11650;48.106;-1.696;2022-09-29T04:17:59;10.83;;;2.67;;
22967;SDS011;11650;48.106;-1.696;2022-09-29T04:20:25;9.30;;;1.97;;
22967;SDS011;11650;48.106;-1.696;2022-09-29T04:22:51;7.70;;;2.53;;
22967;SDS011;11650;48.106;-1.696;2022-09-29T04:25:17;11.70;;;2.13;;
22967;SDS011;11650;48.106;-1.696;2022-09-29T04:27:42;9.97;;;2.17;;
22967;SDS011;11650;48.106;-1.696;2022-09-29T04:30:08;8.20;;;2.40;;
22967;SDS011;11650;48.106;-1.696;2022-09-29T04:32:34;10.10;;;2.37;;
22967;SDS011;11650;48.106;-1.696;2022-09-29T04:35:00;8.67;;;2.13;;
22967;SDS011;11650;48.106;-1.696;2022-09-29T04:37:26;11.37;;;2.50;;
22967;SDS011;11650;48.106;-1.696;2022-09-29T04:39:52;9.30;;;2.27;;
22967;SDS011;11650;48.106;-1.696;2022-09-29T04:42:18;8.27;;;2.20;;
22967;SDS011;11650;48.106;-1.696;2022-09-29T04:44:44;10.03;;;2.20;;
22967;SDS011;11650;48.106;-1.696;2022-09-29T04:47:10;10.13;;;2.17;;
22967;SDS011;11650;48.106;-1.696;2022-09-29T04:49:36;7.63;;;2.30;;
22967;SDS011;11650;48.106;-1.696;2022-09-29T04:52:02;7.80;;;2.37;;
22967;SDS011;11650;48.106;-1.696;2022-09-29T04:54:31;11.87;;;2.47;;
22967;SDS011;11650;48.106;-1.696;2022-09-29T04:56:58;8.70;;;2.13;;
22967;SDS011;11650;48.106;-1.696;2022-09-29T04:59:25;9.77;;;2.30;;
22967;SDS011;11650;48.106;-1.696;2022-09-29T05:01:51;12.90;;;3.00;;
22967;SDS011;11650;48.106;-1.696;2022-09-29T05:04:16;7.70;;;2.30;;
22967;SDS011;11650;48.106;-1.696;2022-09-29T05:06:42;15.37;;;2.63;;
22967;SDS011;11650;48.106;-1.696;2022-09-29T05:09:07;10.73;;;2.57;;
22967;SDS011;11650;48.106;-1.696;2022-09-29T05:11:33;11.90;;;2.30;;
22967;SDS011;11650;48.106;-1.696;2022-09-29T05:13:59;13.20;;;2.50;;
22967;SDS011;11650;48.106;-1.696;2022-09-29T05:16:25;12.67;;;2.83;;
22967;SDS011;11650;48.106;-1.696;2022-09-29T05:18:51;14.40;;;2.63;;
22967;SDS011;11650;48.106;-1.696;2022-09-29T05:21:16;8.40;;;2.37;;
22967;SDS011;11650;48.106;-1.696;2022-09-29T05:23:42;14.87;;;3.17;;
22967;SDS011;11650;48.106;-1.696;2022-09-29T05:26:08;12.87;;;3.10;;
22967;SDS011;11650;48.106;-1.696;2022-09-29T05:28:35;11.00;;;2.87;;
22967;SDS011;11650;48.106;-1.696;2022-09-29T05:31:04;8.10;;;2.93;;
22967;SDS011;11650;48.106;-1.696;2022-09-29T11:02:38;1.63;;;0.80;;
22967;SDS011;11650;48.106;-1.696;2022-09-29T11:05:15;5.00;;;1.30;;
22967;SDS011;11650;48.106;-1.696;2022-09-29T13:35:49;3.77;;;0.80;;
22967;SDS011;11650;48.106;-1.696;2022-09-29T13:38:26;3.80;;;0.90;;
22967;SDS011;11650;48.106;-1.696;2022-09-29T15:00:02;2.33;;;0.90;;
22967;SDS011;11650;48.106;-1.696;2022-09-29T15:02:35;1.93;;;0.80;;
22967;SDS011;11650;48.106;-1.696;2022-09-29T15:05:11;4.03;;;0.73;;
22967;SDS011;11650;48.106;-1.696;2022-09-29T15:07:53;2.47;;;0.87;;
22967;SDS011;11650;48.106;-1.696;2022-09-29T15:10:22;3.10;;;0.93;;
22967;SDS011;11650;48.106;-1.696;2022-09-29T15:12:51;3.53;;;1.00;;
22967;SDS011;11650;48.106;-1.696;2022-09-29T15:15:37;8.00;;;1.07;;
22967;SDS011;11650;48.106;-1.696;2022-09-29T15:18:18;1.80;;;0.80;;
22967;SDS011;11650;48.106;-1.696;2022-09-29T15:26:03;2.33;;;0.90;;
22967;SDS011;11650;48.106;-1.696;2022-09-29T15:28:38;3.13;;;1.20;;
22967;SDS011;11650;48.106;-1.696;2022-09-29T15:31:16;4.00;;;1.10;;
22967;SDS011;11650;48.106;-1.696;2022-09-29T15:33:46;5.60;;;1.17;;
22967;SDS011;11650;48.106;-1.696;2022-09-29T15:36:22;2.47;;;1.23;;
22967;SDS011;11650;48.106;-1.696;2022-09-29T15:38:52;2.80;;;1.10;;
22967;SDS011;11650;48.106;-1.696;2022-09-29T15:41:22;3.10;;;0.87;;
22967;SDS011;11650;48.106;-1.696;2022-09-29T15:46:35;1.93;;;1.03;;
22967;SDS011;11650;48.106;-1.696;2022-09-29T15:51:33;2.73;;;0.93;;
22967;SDS011;11650;48.106;-1.696;2022-09-29T15:54:00;3.33;;;1.17;;
22967;SDS011;11650;48.106;-1.696;2022-09-29T15:56:29;2.60;;;1.23;;
22967;SDS011;11650;48.106;-1.696;2022-09-29T15:58:55;3.30;;;1.47;;
22967;SDS011;11650;48.106;-1.696;2022-09-29T16:01:21;2.33;;;1.30;;
22967;SDS011;11650;48.106;-1.696;2022-09-29T16:06:21;3.57;;;1.53;;
22967;SDS011;11650;48.106;-1.696;2022-09-29T16:08:58;4.30;;;1.60;;
22967;SDS011;11650;48.106;-1.696;2022-09-29T16:11:34;2.93;;;1.50;;
22967;SDS011;11650;48.106;-1.696;2022-09-29T16:14:08;7.00;;;1.50;;
22967;SDS011;11650;48.106;-1.696;2022-09-29T16:16:42;6.30;;;1.50;;
22967;SDS011;11650;48.106;-1.696;2022-09-29T16:19:14;3.90;;;1.20;;
22967;SDS011;11650;48.106;-1.696;2022-09-29T16:21:48;2.73;;;1.10;;
22967;SDS011;11650;48.106;-1.696;2022-09-29T16:24:17;3.20;;;1.13;;
22967;SDS011;11650;48.106;-1.696;2022-09-29T16:31:39;2.17;;;1.00;;
22967;SDS011;11650;48.106;-1.696;2022-09-29T16:36:48;2.23;;;1.20;;
22967;SDS011;11650;48.106;-1.696;2022-09-29T16:39:18;2.27;;;1.10;;
22967;SDS011;11650;48.106;-1.696;2022-09-29T16:41:49;4.27;;;1.67;;
22967;SDS011;11650;48.106;-1.696;2022-09-29T16:44:17;4.03;;;1.90;;
22967;SDS011;11650;48.106;-1.696;2022-09-29T16:49:37;2.77;;;1.53;;
22967;SDS011;11650;48.106;-1.696;2022-09-29T17:00:39;2.80;;;1.17;;
22967;SDS011;11650;48.106;-1.696;2022-09-29T17:03:05;3.13;;;1.03;;
22967;SDS011;11650;48.106;-1.696;2022-09-29T17:05:35;2.07;;;0.97;;
22967;SDS011;11650;48.106;-1.696;2022-09-29T17:08:04;4.23;;;1.00;;
22967;SDS011;11650;48.106;-1.696;2022-09-29T17:10:36;2.83;;;1.07;;
22967;SDS011;11650;48.106;-1.696;2022-09-29T17:13:06;1.97;;;1.00;;
22967;SDS011;11650;48.106;-1.696;2022-09-29T17:15:38;2.27;;;1.00;;
22967;SDS011;11650;48.106;-1.696;2022-09-29T17:18:03;3.70;;;0.90;;
22967;SDS011;11650;48.106;-1.696;2022-09-29T17:20:29;2.37;;;0.83;;
22967;SDS011;11650;48.106;-1.696;2022-09-29T17:22:55;1.77;;;0.83;;
22967;SDS011;11650;48.106;-1.696;2022-09-29T17:25:23;3.93;;;1.60;;
22967;SDS011;11650;48.106;-1.696;2022-09-29T17:27:49;3.77;;;1.40;;
22967;SDS011;11650;48.106;-1.696;2022-09-29T17:30:33;2.70;;;0.90;;
22967;SDS011;11650;48.106;-1.696;2022-09-29T17:32:59;2.83;;;1.20;;
22967;SDS011;11650;48.106;-1.696;2022-09-29T17:35:35;2.50;;;1.20;;
22967;SDS011;11650;48.106;-1.696;2022-09-29T17:38:03;3.47;;;1.10;;
22967;SDS011;11650;48.106;-1.696;2022-09-29T17:43:14;2.70;;;1.20;;
22967;SDS011;11650;48.106;-1.696;2022-09-29T17:45:41;2.43;;;1.37;;
22967;SDS011;11650;48.106;-1.696;2022-09-29T17:48:08;3.13;;;1.40;;
22967;SDS011;11650;48.106;-1.696;2022-09-29T17:50:44;3.40;;;1.20;;
22967;SDS011;11650;48.106;-1.696;2022-09-29T17:53:11;3.23;;;1.30;;
22967;SDS011;11650;48.106;-1.696;2022-09-29T17:55:40;3.60;;;1.30;;
22967;SDS011;11650;48.106;-1.696;2022-09-29T17:58:10;2.33;;;1.20;;
22967;SDS011;11650;48.106;-1.696;2022-09-29T18:00:40;2.37;;;1.20;;
22967;SDS011;11650;48.106;-1.696;2022-09-29T18:03:07;3.23;;;1.20;;
22967;SDS011;11650;48.106;-1.696;2022-09-29T18:05:37;5.10;;;1.37;;
22967;SDS011;11650;48.106;-1.696;2022-09-29T18:08:04;3.90;;;1.30;;
22967;SDS011;11650;48.106;-1.696;2022-09-29T18:11:13;3.97;;;1.50;;
22967;SDS011;11650;48.106;-1.696;2022-09-29T18:13:21;3.40;;;1.30;;
22967;SDS011;11650;48.106;-1.696;2022-09-29T18:15:48;3.67;;;1.30;;
22967;SDS011;11650;48.106;-1.696;2022-09-29T22:35:38;9.83;;;5.83;;
22967;SDS011;11650;48.106;-1.696;2022-09-29T22:38:05;7.43;;;5.57;;
22967;SDS011;11650;48.106;-1.696;2022-09-29T22:40:32;8.03;;;5.30;;
22967;SDS011;11650;48.106;-1.696;2022-09-29T22:43:03;7.90;;;5.37;;
22967;SDS011;11650;48.106;-1.696;2022-09-29T22:45:30;6.80;;;4.97;;
22967;SDS011;11650;48.106;-1.696;2022-09-29T22:47:57;7.83;;;5.70;;
22967;SDS011;11650;48.106;-1.696;2022-09-29T22:50:24;9.10;;;5.90;;
22967;SDS011;11650;48.106;-1.696;2022-09-29T22:52:50;9.60;;;5.60;;
22967;SDS011;11650;48.106;-1.696;2022-09-29T22:55:29;8.37;;;6.43;;
